createdAt,value
2019-03-03T00:01:37.385Z,100397.19
2019-03-03T00:04:08.215Z,100390.91
2019-03-03T00:06:37.853Z,100386.59
2019-03-03T00:09:08.202Z,100384.86
2019-03-03T00:11:37.906Z,100391.30
2019-03-03T00:14:07.681Z,100390.16
2019-03-03T00:16:37.386Z,100387.76
2019-03-03T00:19:07.065Z,100384.77
2019-03-03T00:21:36.754Z,100381.08
2019-03-03T00:24:06.470Z,100379.80
2019-03-03T00:26:36.129Z,100382.06
2019-03-03T00:29:05.792Z,100371.27
2019-03-03T00:31:41.529Z,100369.97
2019-03-03T00:34:11.226Z,100368.03
2019-03-03T00:36:59.109Z,100366.39
2019-03-03T00:39:36.605Z,100360.48
2019-03-03T00:42:23.175Z,100364.00
2019-03-03T00:45:00.504Z,100351.63
2019-03-03T00:47:38.068Z,100337.78
2019-03-03T00:50:09.535Z,100331.52
2019-03-03T00:52:40.824Z,100326.88
2019-03-03T00:55:14.820Z,100327.35
2019-03-03T00:57:48.748Z,100322.88
2019-03-03T01:00:37.980Z,100321.06
2019-03-03T01:03:09.399Z,100312.25
2019-03-03T01:05:56.962Z,100309.08
2019-03-03T01:08:37.493Z,100301.14
2019-03-03T01:11:17.803Z,100291.56
2019-03-03T01:13:58.212Z,100286.70
2019-03-03T01:16:41.825Z,100286.53
2019-03-03T01:19:13.146Z,100280.58
2019-03-03T01:22:00.830Z,100280.03
2019-03-03T01:24:32.148Z,100275.13
2019-03-03T01:27:01.910Z,100260.73
2019-03-03T01:29:31.573Z,100234.55
2019-03-03T01:32:01.513Z,100249.11
2019-03-03T01:34:34.231Z,100254.20
2019-03-03T01:37:03.958Z,100235.24
2019-03-03T01:39:33.931Z,100238.16
2019-03-03T01:42:03.716Z,100225.39
2019-03-03T01:44:33.371Z,100235.89
2019-03-03T01:47:03.052Z,100240.66
2019-03-03T01:49:32.776Z,100220.19
2019-03-03T01:52:02.493Z,100225.91
2019-03-03T01:54:32.194Z,100209.81
2019-03-03T01:57:01.946Z,100198.24
2019-03-03T01:59:31.613Z,100197.14
2019-03-03T02:02:01.335Z,100189.98
2019-03-03T02:04:30.982Z,100192.83
2019-03-03T02:07:00.714Z,100200.27
2019-03-03T02:09:30.661Z,100195.60
2019-03-03T02:12:00.437Z,100190.20
2019-03-03T02:14:30.212Z,100190.42
2019-03-03T02:16:59.956Z,100181.70
2019-03-03T02:19:29.988Z,100169.89
2019-03-03T02:21:59.741Z,100171.12
2019-03-03T02:24:29.384Z,100168.02
2019-03-03T02:26:59.116Z,100160.66
2019-03-03T02:29:28.842Z,100161.64
2019-03-03T02:31:58.766Z,100153.48
2019-03-03T02:34:28.488Z,100147.32
2019-03-03T02:36:58.529Z,100142.22
2019-03-03T02:39:31.371Z,100137.42
2019-03-03T02:42:01.079Z,100141.85
2019-03-03T02:44:30.803Z,100127.11
2019-03-03T02:47:00.461Z,100127.28
2019-03-03T02:49:30.160Z,100122.25
2019-03-03T02:52:07.107Z,100128.84
2019-03-03T02:54:36.757Z,100116.42
2019-03-03T02:57:06.457Z,100109.24
2019-03-03T02:59:36.128Z,100097.94
2019-03-03T03:02:07.519Z,100088.00
2019-03-03T03:04:37.293Z,100105.55
2019-03-03T03:07:08.551Z,100087.35
2019-03-03T03:09:39.933Z,100088.71
2019-03-03T03:12:13.998Z,100090.80
2019-03-03T03:14:45.617Z,100077.17
2019-03-03T03:17:26.438Z,100092.06
2019-03-03T03:19:58.028Z,100088.17
2019-03-03T03:22:35.834Z,100078.91
2019-03-03T03:25:26.665Z,100077.45
2019-03-03T03:28:14.323Z,100071.77
2019-03-03T03:30:45.723Z,100063.06
2019-03-03T03:33:20.003Z,100057.66
2019-03-03T03:35:54.255Z,100051.02
2019-03-03T03:38:34.274Z,100046.51
2019-03-03T03:41:05.612Z,100042.28
2019-03-03T03:43:49.261Z,100033.68
2019-03-03T03:46:20.598Z,100038.22
2019-03-03T03:49:06.968Z,100037.59
2019-03-03T03:51:55.030Z,100027.66
2019-03-03T03:54:25.873Z,100019.80
2019-03-03T03:57:05.856Z,100016.84
2019-03-03T03:59:42.962Z,100014.02
2019-03-03T04:02:32.745Z,100007.61
2019-03-03T04:05:20.815Z,100019.29
2019-03-03T04:07:55.033Z,100006.72
2019-03-03T04:10:26.373Z,100001.79
2019-03-03T04:13:06.600Z,100003.45
2019-03-03T04:15:40.805Z,99997.56
2019-03-03T04:18:18.272Z,99992.26
2019-03-03T04:21:02.001Z,99979.73
2019-03-03T04:23:35.989Z,99970.98
2019-03-03T04:26:09.865Z,99977.11
2019-03-03T04:28:43.908Z,99968.86
2019-03-03T04:31:21.372Z,99974.03
2019-03-03T04:33:52.848Z,99970.81
2019-03-03T04:36:30.125Z,99970.69
2019-03-03T04:39:10.711Z,99964.05
2019-03-03T04:41:44.853Z,99955.59
2019-03-03T04:44:25.397Z,99952.38
2019-03-03T04:46:56.707Z,99946.97
2019-03-03T04:49:44.647Z,99944.74
2019-03-03T04:52:34.326Z,99942.81
2019-03-03T04:55:09.885Z,99936.28
2019-03-03T04:57:46.772Z,99937.61
2019-03-03T05:00:20.867Z,99928.62
2019-03-03T05:03:04.125Z,99928.11
2019-03-03T05:05:38.153Z,99933.81
2019-03-03T05:08:12.138Z,99922.97
2019-03-03T05:10:44.538Z,99907.85
2019-03-03T05:13:18.959Z,99911.30
2019-03-03T05:15:56.111Z,99916.08
2019-03-03T05:18:42.492Z,99915.09
2019-03-03T05:21:12.230Z,99905.98
2019-03-03T05:23:42.953Z,99920.73
2019-03-03T05:26:12.636Z,99913.61
2019-03-03T05:28:42.293Z,99915.56
2019-03-03T05:31:12.165Z,99920.10
2019-03-03T05:33:41.876Z,99913.58
2019-03-03T05:36:11.535Z,99916.81
2019-03-03T05:38:44.444Z,99918.03
2019-03-03T05:41:14.105Z,99919.89
2019-03-03T05:43:43.809Z,99912.25
2019-03-03T05:46:15.193Z,99901.94
2019-03-03T05:48:44.889Z,99911.67
2019-03-03T05:51:14.613Z,99907.34
2019-03-03T05:53:44.382Z,99910.79
2019-03-03T05:56:14.098Z,99903.89
2019-03-03T05:58:43.894Z,99910.05
2019-03-03T06:01:13.540Z,99903.05
2019-03-03T06:03:43.215Z,99900.47
2019-03-03T06:06:15.979Z,99902.20
2019-03-03T06:08:45.735Z,99904.66
2019-03-03T06:11:15.384Z,99907.00
2019-03-03T06:13:45.096Z,99906.14
2019-03-03T06:16:14.737Z,99902.94
2019-03-03T06:18:44.475Z,99914.00
2019-03-03T06:21:14.265Z,99906.14
2019-03-03T06:23:43.937Z,99902.72
2019-03-03T06:26:15.234Z,99902.32
2019-03-03T06:28:44.937Z,99901.97
2019-03-03T06:31:14.593Z,99901.47
2019-03-03T06:33:44.414Z,99899.64
2019-03-03T06:36:14.201Z,99894.44
2019-03-03T06:38:43.849Z,99894.94
2019-03-03T06:41:13.769Z,99896.19
2019-03-03T06:43:43.460Z,99892.13
2019-03-03T06:46:13.165Z,99894.09
2019-03-03T06:48:42.993Z,99902.08
2019-03-03T06:51:12.638Z,99897.41
2019-03-03T06:53:42.307Z,99897.42
2019-03-03T06:56:14.240Z,99900.36
2019-03-03T06:58:43.654Z,99882.64
2019-03-03T07:01:13.346Z,99897.41
2019-03-03T07:03:43.030Z,99899.27
2019-03-03T07:06:12.739Z,99895.32
2019-03-03T07:08:42.402Z,99891.77
2019-03-03T07:11:12.089Z,99894.83
2019-03-03T07:13:41.780Z,99888.56
2019-03-03T07:16:11.414Z,99897.80
2019-03-03T07:18:41.652Z,99895.48
2019-03-03T07:21:11.308Z,99887.47
2019-03-03T07:23:41.056Z,99890.91
2019-03-03T07:26:10.767Z,99889.33
2019-03-03T07:28:40.475Z,99889.31
2019-03-03T07:31:10.284Z,99885.99
2019-03-03T07:33:40.021Z,99893.50
2019-03-03T07:36:09.712Z,99886.11
2019-03-03T07:38:39.377Z,99895.48
2019-03-03T07:41:09.043Z,99900.14
2019-03-03T07:43:38.746Z,99909.76
2019-03-03T07:46:08.391Z,99902.00
2019-03-03T07:48:38.021Z,99907.53
2019-03-03T07:51:07.672Z,99909.50
2019-03-03T07:53:37.368Z,99915.03
2019-03-03T07:56:07.097Z,99920.45
2019-03-03T07:58:36.749Z,99915.16
2019-03-03T08:01:06.465Z,99923.28
2019-03-03T08:03:36.041Z,99916.02
2019-03-03T08:06:05.746Z,99919.34
2019-03-03T08:08:35.398Z,99924.52
2019-03-03T08:11:05.134Z,99925.76
2019-03-03T08:13:34.783Z,99917.02
2019-03-03T08:16:04.562Z,99926.87
2019-03-03T08:18:34.227Z,99928.33
2019-03-03T08:21:03.965Z,99926.61
2019-03-03T08:23:33.623Z,99928.57
2019-03-03T08:26:03.306Z,99934.73
2019-03-03T08:28:33.068Z,99939.42
2019-03-03T08:31:03.448Z,99932.27
2019-03-03T08:33:33.127Z,99933.39
2019-03-03T08:36:02.840Z,99934.11
2019-03-03T08:38:32.506Z,99945.33
2019-03-03T08:41:03.325Z,99939.67
2019-03-03T08:43:34.667Z,99940.66
2019-03-03T08:46:07.162Z,99943.59
2019-03-03T08:48:44.334Z,99941.14
2019-03-03T08:51:16.102Z,99944.70
2019-03-03T08:53:47.392Z,99946.93
2019-03-03T08:56:21.439Z,99942.87
2019-03-03T08:58:52.821Z,99956.05
2019-03-03T09:01:26.913Z,99959.72
2019-03-03T09:04:00.244Z,99963.43
2019-03-03T09:06:34.541Z,99969.70
2019-03-03T09:09:19.615Z,99963.30
2019-03-03T09:12:09.400Z,99960.45
2019-03-03T09:14:40.743Z,99963.53
2019-03-03T09:17:12.045Z,99968.95
2019-03-03T09:19:49.217Z,99964.28
2019-03-03T09:22:36.719Z,99973.27
2019-03-03T09:25:10.043Z,99969.34
2019-03-03T09:27:59.865Z,99964.64
2019-03-03T09:30:31.167Z,99965.88
2019-03-03T09:33:05.191Z,99969.34
2019-03-03T09:35:36.508Z,99966.64
2019-03-03T09:38:13.863Z,99959.00
2019-03-03T09:40:48.474Z,99950.63
2019-03-03T09:43:30.883Z,99958.03
2019-03-03T09:46:18.115Z,99979.45
2019-03-03T09:49:05.633Z,99975.61
2019-03-03T09:51:39.677Z,99972.78
2019-03-03T09:54:11.187Z,99971.81
2019-03-03T09:56:44.986Z,99979.80
2019-03-03T09:59:22.243Z,99979.32
2019-03-03T10:02:09.691Z,99969.44
2019-03-03T10:04:57.034Z,99967.25
2019-03-03T10:07:37.963Z,99975.12
2019-03-03T10:10:28.226Z,99967.69
2019-03-03T10:13:16.191Z,99964.11
2019-03-03T10:15:47.601Z,99970.52
2019-03-03T10:18:25.154Z,99970.80
2019-03-03T10:20:59.208Z,99980.05
2019-03-03T10:23:36.501Z,99978.22
2019-03-03T10:26:10.342Z,99979.68
2019-03-03T10:28:44.228Z,99976.75
2019-03-03T10:31:15.535Z,99979.47
2019-03-03T10:34:01.748Z,99983.53
2019-03-03T10:36:45.327Z,99969.75
2019-03-03T10:39:22.445Z,99966.83
2019-03-03T10:42:05.588Z,99967.92
2019-03-03T10:44:46.006Z,99968.77
2019-03-03T10:47:20.296Z,99967.19
2019-03-03T10:49:54.590Z,99972.10
2019-03-03T10:52:26.063Z,99974.95
2019-03-03T10:54:57.390Z,99975.44
2019-03-03T10:57:31.444Z,99973.71
2019-03-03T11:00:21.248Z,99972.20
2019-03-03T11:03:08.868Z,99975.25
2019-03-03T11:05:55.187Z,99967.30
2019-03-03T11:08:42.755Z,99963.34
2019-03-03T11:11:23.376Z,99973.82
2019-03-03T11:14:07.135Z,99968.91
2019-03-03T11:16:50.502Z,99962.75
2019-03-03T11:19:21.836Z,99979.53
2019-03-03T11:21:59.103Z,99986.45
2019-03-03T11:24:36.414Z,99979.39
2019-03-03T11:27:13.868Z,99977.30
2019-03-03T11:29:57.820Z,99987.64
2019-03-03T11:32:44.065Z,99991.34
2019-03-03T11:35:15.550Z,99978.87
2019-03-03T11:37:49.941Z,99967.81
2019-03-03T11:40:30.661Z,99955.34
2019-03-03T11:43:10.838Z,99952.27
2019-03-03T11:45:42.679Z,99967.19
2019-03-03T11:48:30.557Z,99970.23
2019-03-03T11:51:04.805Z,99968.17
2019-03-03T11:53:36.078Z,99959.42
2019-03-03T11:56:13.199Z,99970.48
2019-03-03T11:58:47.500Z,99975.91
2019-03-03T12:01:21.726Z,99962.75
2019-03-03T12:04:08.337Z,99964.88
2019-03-03T12:06:42.159Z,99963.27
2019-03-03T12:09:29.771Z,99971.63
2019-03-03T12:12:16.073Z,99965.95
2019-03-03T12:14:51.109Z,99969.90
2019-03-03T12:17:25.517Z,99967.55
2019-03-03T12:19:56.894Z,99965.95
2019-03-03T12:22:30.664Z,99962.02
2019-03-03T12:25:02.166Z,99961.77
2019-03-03T12:27:36.681Z,99964.77
2019-03-03T12:30:17.048Z,99958.83
2019-03-03T12:32:48.655Z,99958.57
2019-03-03T12:35:20.099Z,99964.36
2019-03-03T12:37:51.429Z,99961.28
2019-03-03T12:40:39.146Z,99970.41
2019-03-03T12:43:10.777Z,99967.70
2019-03-03T12:45:42.126Z,99965.98
2019-03-03T12:48:29.399Z,99962.64
2019-03-03T12:51:00.807Z,99964.48
2019-03-03T12:53:34.965Z,99962.02
2019-03-03T12:56:12.120Z,99961.03
2019-03-03T12:58:43.522Z,99966.09
2019-03-03T13:01:31.082Z,99967.08
2019-03-03T13:04:02.959Z,99969.16
2019-03-03T13:06:43.458Z,99961.98
2019-03-03T13:09:24.038Z,99959.78
2019-03-03T13:12:01.259Z,99945.70
2019-03-03T13:14:48.814Z,99942.84
2019-03-03T13:17:29.150Z,99930.79
2019-03-03T13:20:06.581Z,99923.02
2019-03-03T13:22:46.793Z,99920.04
2019-03-03T13:25:18.479Z,99926.09
2019-03-03T13:27:58.827Z,99923.90
2019-03-03T13:30:34.661Z,99918.00
2019-03-03T13:33:20.854Z,99922.95
2019-03-03T13:36:08.752Z,99925.77
2019-03-03T13:38:40.639Z,99930.58
2019-03-03T13:41:18.803Z,99918.73
2019-03-03T13:43:48.769Z,99916.64
2019-03-03T13:46:20.171Z,99910.08
2019-03-03T13:48:51.332Z,99907.05
2019-03-03T13:51:21.429Z,99901.75
2019-03-03T13:53:51.274Z,99906.07
2019-03-03T13:56:21.364Z,99906.33
2019-03-03T13:58:51.539Z,99905.48
2019-03-03T14:01:21.453Z,99907.72
2019-03-03T14:03:51.195Z,99901.70
2019-03-03T14:06:21.271Z,99896.87
2019-03-03T14:08:51.069Z,99894.81
2019-03-03T14:11:31.204Z,99888.03
2019-03-03T14:14:04.630Z,99892.61
2019-03-03T14:16:34.746Z,99891.11
2019-03-03T14:19:04.650Z,99876.58
2019-03-03T14:21:34.570Z,99878.95
2019-03-03T14:24:04.810Z,99879.67
2019-03-03T14:26:34.876Z,99876.01
2019-03-03T14:29:05.473Z,99879.56
2019-03-03T14:31:36.284Z,99867.48
2019-03-03T14:38:05.840Z,99874.41
2019-03-03T14:40:45.235Z,99866.63
2019-03-03T14:43:20.181Z,99865.05
2019-03-03T14:45:54.882Z,99863.95
2019-03-03T14:48:33.214Z,99854.72
2019-03-03T14:51:06.241Z,99854.83
2019-03-03T14:54:13.592Z,99855.59
2019-03-03T14:56:45.814Z,99859.78
2019-03-03T14:59:18.335Z,99846.23
2019-03-03T15:01:58.902Z,99848.09
2019-03-03T15:04:45.561Z,99845.87
2019-03-03T15:07:19.452Z,99841.44
2019-03-03T15:09:54.874Z,99828.17
2019-03-03T15:12:27.960Z,99829.27
2019-03-03T15:15:02.730Z,99826.44
2019-03-03T15:17:50.126Z,99818.19
2019-03-03T15:20:24.512Z,99816.23
2019-03-03T15:22:56.845Z,99822.25
2019-03-03T15:25:31.296Z,99815.48
2019-03-03T15:28:06.150Z,99818.19
2019-03-03T15:30:38.008Z,99818.92
2019-03-03T15:33:24.778Z,99811.17
2019-03-03T15:35:56.168Z,99809.70
2019-03-03T15:38:28.030Z,99807.25
2019-03-03T15:40:58.794Z,99806.48
2019-03-03T15:43:28.827Z,99802.20
2019-03-03T15:45:58.951Z,99797.41
2019-03-03T15:48:29.254Z,99794.22
2019-03-03T15:50:59.462Z,99795.67
2019-03-03T15:53:30.064Z,99791.59
2019-03-03T15:56:00.220Z,99784.12
2019-03-03T15:58:30.718Z,99779.83
2019-03-03T16:01:01.147Z,99788.05
2019-03-03T16:03:31.338Z,99777.36
2019-03-03T16:06:01.230Z,99773.93
2019-03-03T16:08:31.177Z,99764.56
2019-03-03T16:11:05.619Z,99759.27
2019-03-03T16:13:35.870Z,99764.06
2019-03-03T16:16:06.769Z,99759.02
2019-03-03T16:18:38.076Z,99756.33
2019-03-03T16:21:08.252Z,99750.05
2019-03-03T16:23:38.365Z,99746.09
2019-03-03T16:26:08.832Z,99749.66
2019-03-03T16:28:38.874Z,99737.59
2019-03-03T16:31:08.611Z,99736.89
2019-03-03T16:33:41.366Z,99730.99
2019-03-03T16:36:11.885Z,99722.98
2019-03-03T16:38:42.813Z,99720.27
2019-03-03T16:41:14.187Z,99716.08
2019-03-03T16:43:45.036Z,99711.90
2019-03-03T16:46:15.843Z,99707.87
2019-03-03T16:48:46.529Z,99703.05
2019-03-03T16:51:16.571Z,99692.22
2019-03-03T16:53:47.879Z,99694.09
2019-03-03T16:56:18.469Z,99690.76
2019-03-03T16:58:50.216Z,99689.30
2019-03-03T17:01:20.669Z,99678.58
2019-03-03T17:03:50.652Z,99674.88
2019-03-03T17:06:21.970Z,99677.37
2019-03-03T17:08:51.906Z,99669.73
2019-03-03T17:11:21.737Z,99666.80
2019-03-03T17:13:51.613Z,99660.00
2019-03-03T17:16:21.572Z,99664.94
2019-03-03T17:18:52.115Z,99660.14
2019-03-03T17:21:22.190Z,99656.20
2019-03-03T17:23:52.902Z,99646.98
2019-03-03T17:26:24.601Z,99639.59
2019-03-03T17:28:54.869Z,99642.92
2019-03-03T17:31:26.167Z,99633.09
2019-03-03T17:33:57.025Z,99636.16
2019-03-03T17:36:29.571Z,99631.00
2019-03-03T17:39:07.517Z,99623.98
2019-03-03T17:41:38.652Z,99619.15
2019-03-03T17:44:18.073Z,99616.19
2019-03-03T17:47:00.727Z,99609.20
2019-03-03T17:50:22.682Z,99610.78
2019-03-03T17:56:40.656Z,99591.19
2019-03-03T17:59:10.608Z,99589.27
2019-03-03T18:01:40.678Z,99585.26
2019-03-03T18:04:11.207Z,99582.55
2019-03-03T18:06:47.835Z,99581.37
2019-03-03T18:09:18.478Z,99571.11
2019-03-03T18:11:54.487Z,99553.52
2019-03-03T18:14:26.159Z,99557.42
2019-03-03T18:17:00.030Z,99546.96
2019-03-03T18:19:33.100Z,99543.89
2019-03-03T18:22:03.707Z,99535.16
2019-03-03T18:24:33.975Z,99529.11
2019-03-03T18:27:03.891Z,99518.92
2019-03-03T18:29:34.269Z,99520.42
2019-03-03T18:32:04.138Z,99515.48
2019-03-03T18:34:34.092Z,99509.03
2019-03-03T18:37:04.344Z,99500.41
2019-03-03T18:39:34.114Z,99495.70
2019-03-03T18:42:04.353Z,99492.83
2019-03-03T18:44:34.193Z,99495.19
2019-03-03T18:47:04.494Z,99490.77
2019-03-03T18:49:34.527Z,99489.58
2019-03-03T18:52:05.107Z,99471.88
2019-03-03T18:54:38.967Z,99476.10
2019-03-03T18:57:09.687Z,99474.34
2019-03-03T18:59:40.360Z,99467.87
2019-03-03T19:02:10.678Z,99464.44
2019-03-03T19:04:41.202Z,99460.63
2019-03-03T19:07:12.513Z,99457.03
2019-03-03T19:09:43.459Z,99444.47
2019-03-03T19:12:14.531Z,99443.70
2019-03-03T19:14:44.633Z,99441.88
2019-03-03T19:17:14.771Z,99442.35
2019-03-03T19:19:46.376Z,99439.27
2019-03-03T19:22:16.976Z,99430.27
2019-03-03T19:24:47.175Z,99426.92
2019-03-03T19:27:16.806Z,99431.59
2019-03-03T19:29:47.392Z,99420.09
2019-03-03T19:32:17.762Z,99417.76
2019-03-03T19:34:48.017Z,99409.36
2019-03-03T19:37:18.988Z,99409.08
2019-03-03T19:39:49.437Z,99408.45
2019-03-03T19:42:20.062Z,99406.66
2019-03-03T19:44:51.015Z,99401.16
2019-03-03T19:47:20.972Z,99400.75
2019-03-03T19:49:50.994Z,99401.66
2019-03-03T19:52:21.990Z,99404.44
2019-03-03T19:54:53.130Z,99397.13
2019-03-03T19:57:23.281Z,99397.02
2019-03-03T20:00:01.063Z,99388.14
2019-03-03T20:02:31.874Z,99387.27
2019-03-03T20:05:02.180Z,99382.63
2019-03-03T20:07:32.434Z,99384.55
2019-03-03T20:10:12.572Z,99386.27
2019-03-03T20:12:43.159Z,99383.58
2019-03-03T20:15:13.555Z,99381.94
2019-03-03T20:17:46.095Z,99380.65
2019-03-03T20:20:23.164Z,99386.48
2019-03-03T20:22:53.402Z,99381.20
2019-03-03T20:25:25.231Z,99380.20
2019-03-03T20:27:59.219Z,99376.94
2019-03-03T20:30:29.681Z,99372.64
2019-03-03T20:32:59.670Z,99370.28
2019-03-03T20:35:32.150Z,99371.36
2019-03-03T20:38:02.695Z,99370.35
2019-03-03T20:40:33.251Z,99377.49
2019-03-03T20:43:04.586Z,99378.78
2019-03-03T20:45:35.270Z,99359.69
2019-03-03T20:48:05.677Z,99372.78
2019-03-03T20:50:37.826Z,99364.99
2019-03-03T20:53:08.069Z,99375.84
2019-03-03T20:55:38.586Z,99369.28
2019-03-03T20:58:09.817Z,99349.26
2019-03-03T21:00:40.270Z,99357.44
2019-03-03T21:03:10.631Z,99363.08
2019-03-03T21:06:19.168Z,99358.84
2019-03-03T21:09:33.339Z,99351.42
2019-03-03T21:12:10.828Z,99350.13
2019-03-03T21:14:40.854Z,99352.94
2019-03-03T21:17:10.845Z,99353.00
2019-03-03T21:19:40.837Z,99340.16
2019-03-03T21:22:11.030Z,99344.86
2019-03-03T21:24:40.913Z,99350.29
2019-03-03T21:27:11.031Z,99343.87
2019-03-03T21:29:41.009Z,99336.24
2019-03-03T21:32:11.456Z,99338.31
2019-03-03T21:34:41.443Z,99335.73
2019-03-03T21:37:11.788Z,99330.72
2019-03-03T21:39:42.090Z,99328.81
2019-03-03T21:42:12.017Z,99324.23
2019-03-03T21:44:42.790Z,99324.75
2019-03-03T21:47:13.284Z,99321.88
2019-03-03T21:49:43.506Z,99308.95
2019-03-03T21:52:13.366Z,99303.58
2019-03-03T21:54:43.308Z,99293.16
2019-03-03T21:57:13.681Z,99294.84
2019-03-03T21:59:43.984Z,99288.31
2019-03-03T22:02:15.534Z,99284.83
2019-03-03T22:04:45.809Z,99288.31
2019-03-03T22:07:17.215Z,99282.47
2019-03-03T22:09:47.283Z,99269.55
2019-03-03T22:12:17.431Z,99278.63
2019-03-03T22:14:47.291Z,99272.14
2019-03-03T22:17:17.310Z,99276.44
2019-03-03T22:19:47.421Z,99270.98
2019-03-03T22:22:18.098Z,99272.86
2019-03-03T22:24:52.760Z,99264.23
2019-03-03T22:27:29.927Z,99266.36
2019-03-03T22:30:03.195Z,99258.88
2019-03-03T22:32:42.210Z,99255.63
2019-03-03T22:35:20.183Z,99243.36
2019-03-03T22:38:01.408Z,99248.38
2019-03-03T22:40:41.745Z,99243.66
2019-03-03T22:43:20.863Z,99233.23
2019-03-03T22:45:57.075Z,99226.58
2019-03-03T22:48:27.346Z,99231.33
2019-03-03T22:50:57.647Z,99217.83
2019-03-03T22:53:28.213Z,99225.80
2019-03-03T22:55:58.258Z,99229.74
2019-03-03T22:58:28.479Z,99225.98
2019-03-03T23:01:08.137Z,99208.23
2019-03-03T23:03:56.547Z,99204.11
2019-03-03T23:06:36.715Z,99206.56
2019-03-03T23:09:12.695Z,99194.26
2019-03-03T23:12:13.141Z,99186.77
2019-03-03T23:14:48.879Z,99185.87
2019-03-03T23:17:43.944Z,99168.60
2019-03-03T23:20:25.610Z,99165.20
2019-03-03T23:23:17.830Z,99152.88
2019-03-03T23:25:52.203Z,99153.48
2019-03-03T23:28:22.229Z,99147.00
2019-03-03T23:30:52.779Z,99136.74
2019-03-03T23:33:22.571Z,99143.08
2019-03-03T23:35:52.864Z,99133.88
2019-03-03T23:38:22.664Z,99133.73
2019-03-03T23:40:56.124Z,99142.81
2019-03-03T23:43:26.972Z,99125.55
2019-03-03T23:45:57.164Z,99132.48
2019-03-03T23:48:27.171Z,99122.35
2019-03-03T23:50:57.121Z,99129.08
2019-03-03T23:53:26.999Z,99108.25
2019-03-03T23:55:57.258Z,99113.73
2019-03-03T23:58:28.035Z,99098.69
